College Park, MD

3:48 PM EST on December 06, 2019 (GMT -0500)
College Park

Weather History for KCGS - October, 2019

Change the Weather History Date:

Monday, October 28, 2019

  Actual Average Record
Temperature  
Mean Temperature 56 °F -  
Max Temperature 67 °F 64 °F 84 °F (1984)
Min Temperature 46 °F 43 °F 27 °F (1976)
Degree Days  
Heating Degree Days 8    
Growing Degree Days 6 (Base 50)    
Moisture  
Dew Point 46 °F    
Average Humidity 68    
Maximum Humidity 94    
Minimum Humidity 44    
Precipitation  
Precipitation 0.00 in - - ()
Sea Level Pressure  
Sea Level Pressure 30.14 in    
Wind  
Wind Speed 2 mph (ENE)    
Max Wind Speed 7 mph    
Max Gust Speed -    
Visibility 10 miles    
Events      
Averages and records for this station are not official NWS values.
T = Trace of Precipitation, MM = Missing Value Source: NWS Daily Summary

Daily Weather History Graph

Daily Weather History Graph

Search for Another Location

Airport or City:

Astronomy

Oct. 28, 2019 Rise Set
Actual Time 7:30 AM EDT 6:11 PM EDT
Civil Twilight 7:02 AM EDT 6:39 PM EDT
Nautical Twilight 6:31 AM EDT 7:10 PM EDT
Astronomical Twilight 6:00 AM EDT 7:41 PM EDT
Moon 7:49 AM EDT (10/28) 6:55 PM EDT (10/28)
Length of Visible Light 11h 36m
Length of Day
10h 41m
New Moon, 0% of the Moon is Illuminated
Oct 28
New Moon
Nov 4
First Quarter
Nov 12
Full
Nov 19
Last Quarter
Nov 26
New

Hourly Weather History & Observations

Time (EDT) Temp. Dew Point Humidity Pressure Visibility Wind Dir Wind Speed Gust Speed Precip Events Conditions
12:03 AM 62.1 °F 45.5 °F 55% 30.00 in 10.0 mi NNW 4.6 mph - N/A   Clear
12:23 AM 61.9 °F 45.1 °F 54% 30.01 in 10.0 mi NW 3.5 mph - N/A   Clear
12:43 AM 61.0 °F 45.0 °F 56% 30.01 in 10.0 mi NW 3.5 mph - N/A   Clear
1:03 AM 58.3 °F 45.3 °F 62% 30.02 in 10.0 mi Calm Calm - N/A   Clear
1:23 AM 56.3 °F 46.0 °F 68% 30.02 in 10.0 mi Calm Calm - N/A   Clear
1:43 AM 59.2 °F 45.3 °F 60% 30.03 in 10.0 mi Calm Calm - N/A   Clear
2:03 AM 59.0 °F 45.1 °F 60% 30.02 in 10.0 mi NNW 6.9 mph - N/A   Clear
2:23 AM 58.1 °F 45.0 °F 62% 30.03 in 10.0 mi Calm Calm - N/A   Clear
2:43 AM 57.9 °F 45.3 °F 63% 30.03 in 10.0 mi Calm Calm - N/A   Clear
3:03 AM 54.3 °F 45.9 °F 73% 30.04 in 10.0 mi NNW 3.5 mph - N/A   Clear
3:23 AM 52.3 °F 46.0 °F 79% 30.04 in 10.0 mi Calm Calm - N/A   Clear
3:43 AM 51.3 °F 45.5 °F 81% 30.05 in 10.0 mi Calm Calm - N/A   Clear
4:03 AM 50.5 °F 45.7 °F 83% 30.05 in 10.0 mi Calm Calm - N/A   Clear
4:23 AM 51.1 °F 45.3 °F 81% 30.06 in 10.0 mi Calm Calm - N/A   Clear
4:43 AM 50.0 °F 45.0 °F 83% 30.07 in 10.0 mi Calm Calm - N/A   Clear
5:03 AM 49.1 °F 45.3 °F 87% 30.07 in 10.0 mi Calm Calm - N/A   Clear
5:23 AM 49.8 °F 46.4 °F 88% 30.07 in 10.0 mi Calm Calm - N/A   Clear
5:43 AM 50.4 °F 45.3 °F 83% 30.08 in 10.0 mi Calm Calm - N/A   Clear
6:03 AM 50.9 °F 44.6 °F 79% 30.09 in 10.0 mi Calm Calm - N/A   Clear
6:23 AM 48.6 °F 44.4 °F 86% 30.09 in 10.0 mi Calm Calm - N/A   Clear
6:43 AM 48.2 °F 45.1 °F 89% 30.11 in 10.0 mi Calm Calm - N/A   Clear
7:03 AM 47.7 °F 45.9 °F 93% 30.12 in 10.0 mi Calm Calm - N/A   Clear
7:23 AM 46.8 °F 45.0 °F 93% 30.13 in 10.0 mi Calm Calm - N/A   Clear
7:43 AM 47.3 °F 45.5 °F 93% 30.14 in 10.0 mi Calm Calm - N/A   Clear
8:03 AM 47.3 °F 45.5 °F 93% 30.15 in 10.0 mi Calm Calm - N/A   Clear
8:23 AM 47.8 °F 46.0 °F 93% 30.17 in 10.0 mi Calm Calm - N/A   Clear
8:43 AM 49.8 °F 48.0 °F 94% 30.17 in 10.0 mi Calm Calm - N/A   Clear
9:03 AM 52.9 °F 51.1 °F 94% 30.17 in 10.0 mi Calm Calm - N/A   Clear
9:23 AM 55.4 °F 46.2 °F 71% 30.18 in 10.0 mi Calm Calm - N/A   Clear
9:43 AM 57.4 °F 45.5 °F 65% 30.19 in 10.0 mi North 4.6 mph - N/A   Clear
10:03 AM 58.5 °F 44.8 °F 60% 30.20 in 10.0 mi NNE 5.8 mph - N/A   Clear
10:23 AM 59.4 °F 43.9 °F 57% 30.20 in 10.0 mi NE 3.5 mph - N/A   Clear
10:43 AM 60.3 °F 44.1 °F 55% 30.20 in 10.0 mi NE 4.6 mph - N/A   Clear
11:03 AM 61.7 °F 44.8 °F 54% 30.20 in 10.0 mi Calm Calm - N/A   Clear
11:23 AM 62.2 °F 44.6 °F 52% 30.20 in 10.0 mi ENE 5.8 mph - N/A   Clear
11:43 AM 63.3 °F 44.8 °F 51% 30.20 in 10.0 mi East 5.8 mph - N/A   Clear
12:03 PM 63.3 °F 44.8 °F 51% 30.20 in 10.0 mi NE 4.6 mph - N/A   Clear
12:23 PM 63.7 °F 45.0 °F 51% 30.20 in 10.0 mi East 5.8 mph - N/A   Clear
12:43 PM 64.8 °F 45.0 °F 49% 30.19 in 10.0 mi ESE 4.6 mph - N/A   Clear
1:23 PM 66.0 °F 45.0 °F 47% 30.19 in 10.0 mi East 5.8 mph - N/A   Clear
1:43 PM 66.4 °F 44.8 °F 46% 30.18 in 10.0 mi South 4.6 mph - N/A   Clear
2:03 PM 66.9 °F 45.3 °F 46% 30.17 in 10.0 mi East 4.6 mph - N/A   Clear
2:23 PM 66.7 °F 44.6 °F 45% 30.17 in 10.0 mi SE 5.8 mph - N/A   Clear
2:43 PM 67.6 °F 45.0 °F 44% 30.17 in 10.0 mi Calm Calm - N/A   Clear
3:03 PM 67.3 °F 44.8 °F 44% 30.16 in 10.0 mi East 4.6 mph - N/A   Clear
4:03 PM 67.8 °F 45.1 °F 44% 30.15 in 10.0 mi SE 6.9 mph - N/A   Clear
4:23 PM 67.3 °F 45.5 °F 45% 30.15 in 10.0 mi East 3.5 mph - N/A   Clear
4:43 PM 66.4 °F 45.3 °F 47% 30.16 in 10.0 mi East 4.6 mph - N/A   Clear
5:03 PM 66.2 °F 45.7 °F 48% 30.17 in 10.0 mi SE 5.8 mph - N/A   Clear
5:23 PM 64.9 °F 45.7 °F 50% 30.17 in 10.0 mi East 5.8 mph - N/A   Clear
5:43 PM 63.7 °F 45.7 °F 52% 30.17 in 10.0 mi ESE 3.5 mph - N/A   Clear
6:03 PM 62.6 °F 46.4 °F 55% 30.18 in 10.0 mi Calm Calm - N/A   Clear
6:23 PM 59.4 °F 47.7 °F 65% 30.18 in 10.0 mi Calm Calm - N/A   Clear
6:43 PM 56.8 °F 47.8 °F 72% 30.18 in 10.0 mi Calm Calm - N/A   Clear
7:03 PM 55.8 °F 47.8 °F 75% 30.19 in 10.0 mi Calm Calm - N/A   Clear
7:23 PM 55.0 °F 48.0 °F 77% 30.19 in 10.0 mi Calm Calm - N/A   Clear
7:43 PM 54.1 °F 47.7 °F 79% 30.20 in 10.0 mi Calm Calm - N/A   Clear
8:03 PM 53.1 °F 47.5 °F 81% 30.20 in 10.0 mi Calm Calm - N/A   Clear
8:23 PM 52.7 °F 47.3 °F 82% 30.20 in 10.0 mi Calm Calm - N/A   Clear
8:43 PM 52.3 °F 47.3 °F 83% 30.20 in 10.0 mi Calm Calm - N/A   Clear
9:03 PM 52.7 °F 47.7 °F 83% 30.21 in 10.0 mi Calm Calm - N/A   Clear
9:23 PM 52.7 °F 46.8 °F 80% 30.22 in 10.0 mi Calm Calm - N/A   Mostly Cloudy
9:43 PM 55.6 °F 47.7 °F 75% 30.22 in 10.0 mi Calm Calm - N/A   Overcast
10:03 PM 57.0 °F 48.7 °F 74% 30.23 in 10.0 mi Calm Calm - N/A   Overcast
10:23 PM 57.2 °F 49.1 °F 74% 30.22 in 10.0 mi East 3.5 mph - N/A   Overcast
10:43 PM 57.2 °F 49.5 °F 75% 30.23 in 10.0 mi ESE 3.5 mph - N/A   Overcast
11:03 PM 57.2 °F 50.0 °F 77% 30.23 in 10.0 mi East 5.8 mph - N/A   Overcast
11:23 PM 57.4 °F 50.0 °F 76% 30.23 in 10.0 mi ESE 3.5 mph - N/A   Overcast
11:43 PM 57.6 °F 50.4 °F 77% 30.23 in 10.0 mi ESE 3.5 mph - N/A   Overcast